sensor_id;sensor_type;location;lat;lon;timestamp;temperature;humidity
36216;DHT22;22257;52.232;21.084;2022-08-16T00:01:22;22.50;99.90
36216;DHT22;22257;52.232;21.084;2022-08-16T00:03:48;22.40;99.90
36216;DHT22;22257;52.232;21.084;2022-08-16T00:06:14;22.40;99.90
36216;DHT22;22257;52.232;21.084;2022-08-16T00:08:40;22.40;99.90
36216;DHT22;22257;52.232;21.084;2022-08-16T00:11:08;22.40;99.90
36216;DHT22;22257;52.232;21.084;2022-08-16T00:13:35;22.30;99.90
36216;DHT22;22257;52.232;21.084;2022-08-16T00:16:02;22.30;99.90
36216;DHT22;22257;52.232;21.084;2022-08-16T00:18:28;22.30;99.90
36216;DHT22;22257;52.232;21.084;2022-08-16T00:20:55;22.30;99.90
36216;DHT22;22257;52.232;21.084;2022-08-16T00:23:22;22.30;99.90
36216;DHT22;22257;52.232;21.084;2022-08-16T00:25:48;22.30;99.90
36216;DHT22;22257;52.232;21.084;2022-08-16T00:28:14;22.20;99.90
36216;DHT22;22257;52.232;21.084;2022-08-16T00:30:41;22.20;99.90
36216;DHT22;22257;52.232;21.084;2022-08-16T00:33:08;22.20;99.90
36216;DHT22;22257;52.232;21.084;2022-08-16T00:35:35;22.10;99.90
36216;DHT22;22257;52.232;21.084;2022-08-16T00:38:03;22.10;99.90
36216;DHT22;22257;52.232;21.084;2022-08-16T00:40:42;22.10;99.90
36216;DHT22;22257;52.232;21.084;2022-08-16T00:43:15;22.10;99.90
36216;DHT22;22257;52.232;21.084;2022-08-16T00:48:17;22.10;99.90
36216;DHT22;22257;52.232;21.084;2022-08-16T00:50:44;22.10;99.90
36216;DHT22;22257;52.232;21.084;2022-08-16T00:53:13;22.10;99.90
36216;DHT22;22257;52.232;21.084;2022-08-16T00:55:43;22.10;99.90
36216;DHT22;22257;52.232;21.084;2022-08-16T00:58:10;22.10;99.90
36216;DHT22;22257;52.232;21.084;2022-08-16T01:00:36;22.00;99.90
36216;DHT22;22257;52.232;21.084;2022-08-16T01:03:06;22.10;99.90
36216;DHT22;22257;52.232;21.084;2022-08-16T01:05:34;22.10;99.90
36216;DHT22;22257;52.232;21.084;2022-08-16T01:08:01;22.00;99.90
36216;DHT22;22257;52.232;21.084;2022-08-16T01:10:30;22.10;99.90
36216;DHT22;22257;52.232;21.084;2022-08-16T01:12:58;22.00;99.90
36216;DHT22;22257;52.232;21.084;2022-08-16T01:15:26;22.00;99.90
36216;DHT22;22257;52.232;21.084;2022-08-16T01:17:53;21.90;99.90
36216;DHT22;22257;52.232;21.084;2022-08-16T01:20:21;22.00;99.90
36216;DHT22;22257;52.232;21.084;2022-08-16T01:22:54;21.90;99.90
36216;DHT22;22257;52.232;21.084;2022-08-16T01:25:28;22.00;99.90
36216;DHT22;22257;52.232;21.084;2022-08-16T01:27:57;21.90;99.90
36216;DHT22;22257;52.232;21.084;2022-08-16T01:30:30;21.90;99.90
36216;DHT22;22257;52.232;21.084;2022-08-16T01:33:01;21.80;99.90
36216;DHT22;22257;52.232;21.084;2022-08-16T01:35:57;21.90;99.90
36216;DHT22;22257;52.232;21.084;2022-08-16T01:38:15;21.80;99.90
36216;DHT22;22257;52.232;21.084;2022-08-16T01:40:42;21.80;99.90
36216;DHT22;22257;52.232;21.084;2022-08-16T01:43:08;21.80;99.90
36216;DHT22;22257;52.232;21.084;2022-08-16T01:45:34;21.70;99.90
36216;DHT22;22257;52.232;21.084;2022-08-16T01:48:00;21.80;99.90
36216;DHT22;22257;52.232;21.084;2022-08-16T01:50:27;21.80;99.90
36216;DHT22;22257;52.232;21.084;2022-08-16T01:52:53;21.80;99.90
36216;DHT22;22257;52.232;21.084;2022-08-16T01:55:21;21.80;99.90
36216;DHT22;22257;52.232;21.084;2022-08-16T01:57:47;21.70;99.90
36216;DHT22;22257;52.232;21.084;2022-08-16T02:00:15;21.70;99.90
36216;DHT22;22257;52.232;21.084;2022-08-16T02:02:42;21.70;99.90
36216;DHT22;22257;52.232;21.084;2022-08-16T02:05:09;21.70;99.90
36216;DHT22;22257;52.232;21.084;2022-08-16T02:07:36;21.70;99.90
36216;DHT22;22257;52.232;21.084;2022-08-16T02:10:06;21.70;99.90
36216;DHT22;22257;52.232;21.084;2022-08-16T02:12:33;21.70;99.90
36216;DHT22;22257;52.232;21.084;2022-08-16T02:14:59;21.70;99.90
36216;DHT22;22257;52.232;21.084;2022-08-16T02:17:26;21.70;99.90
36216;DHT22;22257;52.232;21.084;2022-08-16T02:19:52;21.70;99.90
36216;DHT22;22257;52.232;21.084;2022-08-16T02:22:21;21.80;99.90
36216;DHT22;22257;52.232;21.084;2022-08-16T02:24:48;21.70;99.90
36216;DHT22;22257;52.232;21.084;2022-08-16T02:27:15;21.80;99.90
36216;DHT22;22257;52.232;21.084;2022-08-16T02:29:42;21.70;99.90
36216;DHT22;22257;52.232;21.084;2022-08-16T02:32:15;21.70;99.90
36216;DHT22;22257;52.232;21.084;2022-08-16T02:34:42;21.80;99.90
36216;DHT22;22257;52.232;21.084;2022-08-16T02:37:09;21.70;99.90
36216;DHT22;22257;52.232;21.084;2022-08-16T02:39:36;21.70;99.90
36216;DHT22;22257;52.232;21.084;2022-08-16T02:42:02;21.70;99.90
36216;DHT22;22257;52.232;21.084;2022-08-16T02:44:28;21.70;99.90
36216;DHT22;22257;52.232;21.084;2022-08-16T02:46:56;21.70;99.90
36216;DHT22;22257;52.232;21.084;2022-08-16T02:49:22;21.70;99.90
36216;DHT22;22257;52.232;21.084;2022-08-16T02:51:48;21.60;99.90
36216;DHT22;22257;52.232;21.084;2022-08-16T02:54:14;21.60;99.90
36216;DHT22;22257;52.232;21.084;2022-08-16T02:56:41;21.60;99.90
36216;DHT22;22257;52.232;21.084;2022-08-16T02:59:07;21.50;99.90
36216;DHT22;22257;52.232;21.084;2022-08-16T03:01:34;21.50;99.90
36216;DHT22;22257;52.232;21.084;2022-08-16T03:04:03;21.50;99.90
36216;DHT22;22257;52.232;21.084;2022-08-16T03:06:30;21.40;99.90
36216;DHT22;22257;52.232;21.084;2022-08-16T03:08:56;21.40;99.90
36216;DHT22;22257;52.232;21.084;2022-08-16T03:11:22;21.40;99.90
36216;DHT22;22257;52.232;21.084;2022-08-16T03:13:52;21.30;99.90
36216;DHT22;22257;52.232;21.084;2022-08-16T03:16:20;21.30;99.90
36216;DHT22;22257;52.232;21.084;2022-08-16T03:18:47;21.30;99.90
36216;DHT22;22257;52.232;21.084;2022-08-16T03:21:13;21.20;99.90
36216;DHT22;22257;52.232;21.084;2022-08-16T03:23:40;21.20;99.90
36216;DHT22;22257;52.232;21.084;2022-08-16T03:26:07;21.10;99.90
36216;DHT22;22257;52.232;21.084;2022-08-16T03:28:33;21.10;99.90
36216;DHT22;22257;52.232;21.084;2022-08-16T03:31:00;21.10;99.90
36216;DHT22;22257;52.232;21.084;2022-08-16T03:33:26;21.10;99.90
36216;DHT22;22257;52.232;21.084;2022-08-16T03:35:52;21.10;99.90
36216;DHT22;22257;52.232;21.084;2022-08-16T03:38:20;21.10;99.90
36216;DHT22;22257;52.232;21.084;2022-08-16T03:40:47;21.10;99.90
36216;DHT22;22257;52.232;21.084;2022-08-16T03:43:13;21.10;99.90
36216;DHT22;22257;52.232;21.084;2022-08-16T03:45:39;21.10;99.90
36216;DHT22;22257;52.232;21.084;2022-08-16T03:48:07;21.10;99.90
36216;DHT22;22257;52.232;21.084;2022-08-16T03:50:34;21.10;99.90
36216;DHT22;22257;52.232;21.084;2022-08-16T03:53:02;21.10;99.90
36216;DHT22;22257;52.232;21.084;2022-08-16T03:55:28;21.10;99.90
36216;DHT22;22257;52.232;21.084;2022-08-16T03:57:54;21.10;99.90
36216;DHT22;22257;52.232;21.084;2022-08-16T04:00:24;21.20;99.90
36216;DHT22;22257;52.232;21.084;2022-08-16T04:02:56;21.20;99.90
36216;DHT22;22257;52.232;21.084;2022-08-16T04:05:23;21.20;99.90
36216;DHT22;22257;52.232;21.084;2022-08-16T04:07:50;21.20;99.90
36216;DHT22;22257;52.232;21.084;2022-08-16T04:10:16;21.10;99.90
36216;DHT22;22257;52.232;21.084;2022-08-16T04:12:44;21.10;99.90
36216;DHT22;22257;52.232;21.084;2022-08-16T04:15:13;21.20;99.90
36216;DHT22;22257;52.232;21.084;2022-08-16T04:17:40;21.20;99.90
36216;DHT22;22257;52.232;21.084;2022-08-16T04:20:08;21.20;99.90
36216;DHT22;22257;52.232;21.084;2022-08-16T04:22:35;21.30;99.90
36216;DHT22;22257;52.232;21.084;2022-08-16T04:25:04;21.30;99.90
36216;DHT22;22257;52.232;21.084;2022-08-16T04:27:31;21.30;99.90
36216;DHT22;22257;52.232;21.084;2022-08-16T04:29:58;21.30;99.90
36216;DHT22;22257;52.232;21.084;2022-08-16T04:32:24;20.80;99.90
36216;DHT22;22257;52.232;21.084;2022-08-16T04:34:50;21.20;99.90
36216;DHT22;22257;52.232;21.084;2022-08-16T04:37:17;21.20;99.90
36216;DHT22;22257;52.232;21.084;2022-08-16T04:39:43;21.20;99.90
36216;DHT22;22257;52.232;21.084;2022-08-16T04:42:09;21.20;99.90
36216;DHT22;22257;52.232;21.084;2022-08-16T04:44:36;21.20;99.90
36216;DHT22;22257;52.232;21.084;2022-08-16T04:47:03;21.20;99.90
36216;DHT22;22257;52.232;21.084;2022-08-16T04:49:29;21.10;99.90
36216;DHT22;22257;52.232;21.084;2022-08-16T04:51:56;21.20;99.90
36216;DHT22;22257;52.232;21.084;2022-08-16T04:54:22;21.10;99.90
36216;DHT22;22257;52.232;21.084;2022-08-16T04:56:48;21.20;99.90
36216;DHT22;22257;52.232;21.084;2022-08-16T04:59:14;21.30;99.90
36216;DHT22;22257;52.232;21.084;2022-08-16T05:01:40;21.30;99.90
36216;DHT22;22257;52.232;21.084;2022-08-16T05:04:06;21.30;99.90
36216;DHT22;22257;52.232;21.084;2022-08-16T05:06:32;21.40;99.90
36216;DHT22;22257;52.232;21.084;2022-08-16T05:08:58;21.40;99.90
36216;DHT22;22257;52.232;21.084;2022-08-16T05:11:24;21.50;99.90
36216;DHT22;22257;52.232;21.084;2022-08-16T05:13:52;21.60;99.90
36216;DHT22;22257;52.232;21.084;2022-08-16T05:16:22;21.60;99.90
36216;DHT22;22257;52.232;21.084;2022-08-16T05:18:50;21.70;99.90
36216;DHT22;22257;52.232;21.084;2022-08-16T05:21:17;21.80;99.90
36216;DHT22;22257;52.232;21.084;2022-08-16T05:23:44;22.00;99.90
36216;DHT22;22257;52.232;21.084;2022-08-16T05:26:10;22.00;99.90
36216;DHT22;22257;52.232;21.084;2022-08-16T05:28:36;22.10;99.90
36216;DHT22;22257;52.232;21.084;2022-08-16T05:31:03;22.20;99.90
36216;DHT22;22257;52.232;21.084;2022-08-16T05:33:29;22.20;99.90
36216;DHT22;22257;52.232;21.084;2022-08-16T05:35:56;22.20;99.90
36216;DHT22;22257;52.232;21.084;2022-08-16T05:38:23;22.30;99.90
36216;DHT22;22257;52.232;21.084;2022-08-16T05:40:52;22.30;99.90
36216;DHT22;22257;52.232;21.084;2022-08-16T05:43:18;22.40;99.90
36216;DHT22;22257;52.232;21.084;2022-08-16T05:45:44;22.40;99.90
36216;DHT22;22257;52.232;21.084;2022-08-16T05:48:10;22.50;99.90
36216;DHT22;22257;52.232;21.084;2022-08-16T05:50:36;22.50;99.90
36216;DHT22;22257;52.232;21.084;2022-08-16T05:53:02;22.60;99.90
36216;DHT22;22257;52.232;21.084;2022-08-16T05:55:28;22.60;99.90
36216;DHT22;22257;52.232;21.084;2022-08-16T05:57:54;22.60;99.90
36216;DHT22;22257;52.232;21.084;2022-08-16T06:00:20;22.50;99.90
36216;DHT22;22257;52.232;21.084;2022-08-16T06:02:47;22.50;99.90
36216;DHT22;22257;52.232;21.084;2022-08-16T06:05:13;22.40;99.90
36216;DHT22;22257;52.232;21.084;2022-08-16T06:07:39;22.40;99.90
36216;DHT22;22257;52.232;21.084;2022-08-16T06:10:06;22.50;99.90
36216;DHT22;22257;52.232;21.084;2022-08-16T06:12:33;22.40;99.90
36216;DHT22;22257;52.232;21.084;2022-08-16T06:15:01;22.40;99.90
36216;DHT22;22257;52.232;21.084;2022-08-16T06:17:28;22.50;99.90
36216;DHT22;22257;52.232;21.084;2022-08-16T06:19:55;22.50;99.90
36216;DHT22;22257;52.232;21.084;2022-08-16T06:22:21;22.70;99.90
36216;DHT22;22257;52.232;21.084;2022-08-16T06:24:47;22.80;99.90
36216;DHT22;22257;52.232;21.084;2022-08-16T06:27:14;22.90;99.90
36216;DHT22;22257;52.232;21.084;2022-08-16T06:29:41;23.00;99.90
36216;DHT22;22257;52.232;21.084;2022-08-16T06:32:06;23.10;99.90
36216;DHT22;22257;52.232;21.084;2022-08-16T06:34:32;23.20;99.90
36216;DHT22;22257;52.232;21.084;2022-08-16T06:37:00;23.30;99.90
36216;DHT22;22257;52.232;21.084;2022-08-16T06:39:26;23.60;99.90
36216;DHT22;22257;52.232;21.084;2022-08-16T06:41:52;23.70;99.90
36216;DHT22;22257;52.232;21.084;2022-08-16T06:44:18;23.90;99.90
36216;DHT22;22257;52.232;21.084;2022-08-16T06:46:44;24.10;99.90
36216;DHT22;22257;52.232;21.084;2022-08-16T06:49:11;24.20;99.90
36216;DHT22;22257;52.232;21.084;2022-08-16T06:51:39;24.00;99.90
36216;DHT22;22257;52.232;21.084;2022-08-16T06:54:07;24.00;99.90
36216;DHT22;22257;52.232;21.084;2022-08-16T06:56:34;23.90;99.90
36216;DHT22;22257;52.232;21.084;2022-08-16T06:59:00;24.00;99.90
36216;DHT22;22257;52.232;21.084;2022-08-16T07:01:26;24.30;99.90
36216;DHT22;22257;52.232;21.084;2022-08-16T07:03:53;24.50;99.90
36216;DHT22;22257;52.232;21.084;2022-08-16T07:06:20;24.30;99.90
36216;DHT22;22257;52.232;21.084;2022-08-16T07:08:47;24.30;99.90
36216;DHT22;22257;52.232;21.084;2022-08-16T07:11:18;24.30;99.90
36216;DHT22;22257;52.232;21.084;2022-08-16T07:13:42;24.50;99.90
36216;DHT22;22257;52.232;21.084;2022-08-16T07:16:11;24.80;99.90
36216;DHT22;22257;52.232;21.084;2022-08-16T07:18:40;24.70;99.90
36216;DHT22;22257;52.232;21.084;2022-08-16T07:21:07;24.80;99.90
36216;DHT22;22257;52.232;21.084;2022-08-16T07:23:35;24.70;99.90
36216;DHT22;22257;52.232;21.084;2022-08-16T07:26:03;24.70;99.90
36216;DHT22;22257;52.232;21.084;2022-08-16T07:28:30;24.70;99.90
36216;DHT22;22257;52.232;21.084;2022-08-16T07:30:56;24.60;99.90
36216;DHT22;22257;52.232;21.084;2022-08-16T07:33:24;24.50;99.90
36216;DHT22;22257;52.232;21.084;2022-08-16T07:35:50;24.50;99.90
36216;DHT22;22257;52.232;21.084;2022-08-16T07:38:16;24.80;99.90
36216;DHT22;22257;52.232;21.084;2022-08-16T07:40:42;24.90;99.90
36216;DHT22;22257;52.232;21.084;2022-08-16T07:43:08;25.20;99.90
36216;DHT22;22257;52.232;21.084;2022-08-16T07:45:35;25.40;99.90
36216;DHT22;22257;52.232;21.084;2022-08-16T07:48:01;25.40;99.90
36216;DHT22;22257;52.232;21.084;2022-08-16T07:50:27;25.50;99.90
36216;DHT22;22257;52.232;21.084;2022-08-16T07:52:53;25.30;99.90
36216;DHT22;22257;52.232;21.084;2022-08-16T07:55:19;25.30;99.90
36216;DHT22;22257;52.232;21.084;2022-08-16T07:57:46;25.30;99.90
36216;DHT22;22257;52.232;21.084;2022-08-16T08:00:13;25.50;99.90
36216;DHT22;22257;52.232;21.084;2022-08-16T08:02:39;25.70;99.90
36216;DHT22;22257;52.232;21.084;2022-08-16T08:05:06;25.80;99.90
36216;DHT22;22257;52.232;21.084;2022-08-16T08:07:32;25.80;99.90
36216;DHT22;22257;52.232;21.084;2022-08-16T08:09:58;25.90;99.90
36216;DHT22;22257;52.232;21.084;2022-08-16T08:12:24;25.70;99.90
36216;DHT22;22257;52.232;21.084;2022-08-16T08:14:51;25.60;99.90
36216;DHT22;22257;52.232;21.084;2022-08-16T08:17:18;25.80;99.90
36216;DHT22;22257;52.232;21.084;2022-08-16T08:19:44;26.10;99.90
36216;DHT22;22257;52.232;21.084;2022-08-16T08:22:10;26.20;99.90
36216;DHT22;22257;52.232;21.084;2022-08-16T08:24:36;26.40;99.90
36216;DHT22;22257;52.232;21.084;2022-08-16T08:27:06;26.30;99.90
36216;DHT22;22257;52.232;21.084;2022-08-16T08:29:35;26.60;99.90
36216;DHT22;22257;52.232;21.084;2022-08-16T08:32:01;26.90;99.90
36216;DHT22;22257;52.232;21.084;2022-08-16T08:34:28;27.20;99.90
36216;DHT22;22257;52.232;21.084;2022-08-16T08:36:54;27.10;99.90
36216;DHT22;22257;52.232;21.084;2022-08-16T08:39:21;27.20;99.90
36216;DHT22;22257;52.232;21.084;2022-08-16T08:41:47;27.60;99.90
36216;DHT22;22257;52.232;21.084;2022-08-16T08:44:13;27.80;99.90
36216;DHT22;22257;52.232;21.084;2022-08-16T08:46:40;28.20;99.90
36216;DHT22;22257;52.232;21.084;2022-08-16T08:49:06;28.20;99.90
36216;DHT22;22257;52.232;21.084;2022-08-16T08:51:34;27.70;99.90
36216;DHT22;22257;52.232;21.084;2022-08-16T08:54:00;27.90;99.90
36216;DHT22;22257;52.232;21.084;2022-08-16T08:56:29;28.10;99.90
36216;DHT22;22257;52.232;21.084;2022-08-16T08:58:57;27.80;99.90
36216;DHT22;22257;52.232;21.084;2022-08-16T09:01:27;27.60;99.90
36216;DHT22;22257;52.232;21.084;2022-08-16T09:03:53;27.40;99.90
36216;DHT22;22257;52.232;21.084;2022-08-16T09:06:20;27.00;99.90
36216;DHT22;22257;52.232;21.084;2022-08-16T09:08:46;27.20;99.90
36216;DHT22;22257;52.232;21.084;2022-08-16T09:11:12;27.00;99.90
36216;DHT22;22257;52.232;21.084;2022-08-16T09:13:38;27.00;99.90
36216;DHT22;22257;52.232;21.084;2022-08-16T09:16:05;27.00;99.90
36216;DHT22;22257;52.232;21.084;2022-08-16T09:18:32;26.90;99.90
36216;DHT22;22257;52.232;21.084;2022-08-16T09:20:58;26.80;99.90
36216;DHT22;22257;52.232;21.084;2022-08-16T09:23:25;26.60;99.90
36216;DHT22;22257;52.232;21.084;2022-08-16T09:25:52;26.60;99.90
36216;DHT22;22257;52.232;21.084;2022-08-16T09:28:18;26.80;99.90
36216;DHT22;22257;52.232;21.084;2022-08-16T09:30:45;26.90;99.90
36216;DHT22;22257;52.232;21.084;2022-08-16T09:33:13;27.00;99.90
36216;DHT22;22257;52.232;21.084;2022-08-16T09:35:41;26.90;99.90
36216;DHT22;22257;52.232;21.084;2022-08-16T09:38:08;26.90;99.90
36216;DHT22;22257;52.232;21.084;2022-08-16T09:40:37;26.90;99.90
36216;DHT22;22257;52.232;21.084;2022-08-16T09:43:03;26.90;99.90
36216;DHT22;22257;52.232;21.084;2022-08-16T09:45:29;26.90;99.90
36216;DHT22;22257;52.232;21.084;2022-08-16T09:47:57;26.80;99.90
36216;DHT22;22257;52.232;21.084;2022-08-16T09:50:25;26.80;99.90
36216;DHT22;22257;52.232;21.084;2022-08-16T09:52:53;26.90;99.90
36216;DHT22;22257;52.232;21.084;2022-08-16T09:55:21;27.30;99.90
36216;DHT22;22257;52.232;21.084;2022-08-16T09:57:47;27.50;99.90
36216;DHT22;22257;52.232;21.084;2022-08-16T10:00:13;27.40;99.90
36216;DHT22;22257;52.232;21.084;2022-08-16T10:02:39;27.60;99.90
36216;DHT22;22257;52.232;21.084;2022-08-16T10:05:07;27.60;99.90
36216;DHT22;22257;52.232;21.084;2022-08-16T10:07:33;27.50;99.90
36216;DHT22;22257;52.232;21.084;2022-08-16T10:09:59;27.30;99.90
36216;DHT22;22257;52.232;21.084;2022-08-16T10:12:26;27.60;99.90
36216;DHT22;22257;52.232;21.084;2022-08-16T10:15:20;27.60;99.90
36216;DHT22;22257;52.232;21.084;2022-08-16T10:17:40;27.50;99.90
36216;DHT22;22257;52.232;21.084;2022-08-16T10:20:09;27.40;99.90
36216;DHT22;22257;52.232;21.084;2022-08-16T10:22:37;27.40;99.90
36216;DHT22;22257;52.232;21.084;2022-08-16T10:25:05;27.60;99.90
36216;DHT22;22257;52.232;21.084;2022-08-16T10:27:32;27.50;99.90
36216;DHT22;22257;52.232;21.084;2022-08-16T10:30:03;27.30;99.90
36216;DHT22;22257;52.232;21.084;2022-08-16T10:32:30;27.10;99.90
36216;DHT22;22257;52.232;21.084;2022-08-16T10:34:56;27.30;99.90
36216;DHT22;22257;52.232;21.084;2022-08-16T10:37:23;27.70;99.90
36216;DHT22;22257;52.232;21.084;2022-08-16T10:39:49;27.80;99.90
36216;DHT22;22257;52.232;21.084;2022-08-16T10:42:15;27.50;99.90
36216;DHT22;22257;52.232;21.084;2022-08-16T10:44:42;27.60;99.90
36216;DHT22;22257;52.232;21.084;2022-08-16T10:47:10;27.50;99.90
36216;DHT22;22257;52.232;21.084;2022-08-16T10:49:36;27.40;99.90
36216;DHT22;22257;52.232;21.084;2022-08-16T10:52:04;27.50;99.90
36216;DHT22;22257;52.232;21.084;2022-08-16T10:54:30;27.80;99.90
36216;DHT22;22257;52.232;21.084;2022-08-16T10:56:58;28.10;99.90
36216;DHT22;22257;52.232;21.084;2022-08-16T10:59:25;27.60;99.90
36216;DHT22;22257;52.232;21.084;2022-08-16T11:01:53;27.70;99.90
36216;DHT22;22257;52.232;21.084;2022-08-16T11:04:19;27.60;99.90
36216;DHT22;22257;52.232;21.084;2022-08-16T11:06:45;27.50;99.90
36216;DHT22;22257;52.232;21.084;2022-08-16T11:09:11;27.80;99.90
36216;DHT22;22257;52.232;21.084;2022-08-16T11:11:37;28.10;99.90
36216;DHT22;22257;52.232;21.084;2022-08-16T11:14:03;27.50;99.90
36216;DHT22;22257;52.232;21.084;2022-08-16T11:16:30;27.40;99.90
36216;DHT22;22257;52.232;21.084;2022-08-16T11:18:56;27.20;99.90
36216;DHT22;22257;52.232;21.084;2022-08-16T11:21:22;27.00;99.90
36216;DHT22;22257;52.232;21.084;2022-08-16T11:23:52;27.00;99.90
36216;DHT22;22257;52.232;21.084;2022-08-16T11:26:19;27.00;99.90
36216;DHT22;22257;52.232;21.084;2022-08-16T11:28:45;27.10;99.90
36216;DHT22;22257;52.232;21.084;2022-08-16T11:31:13;27.10;99.90
36216;DHT22;22257;52.232;21.084;2022-08-16T11:33:39;27.20;99.90
36216;DHT22;22257;52.232;21.084;2022-08-16T11:36:06;27.40;99.90
36216;DHT22;22257;52.232;21.084;2022-08-16T11:38:32;27.50;99.90
36216;DHT22;22257;52.232;21.084;2022-08-16T11:40:58;27.70;99.90
36216;DHT22;22257;52.232;21.084;2022-08-16T11:43:27;28.00;99.90
36216;DHT22;22257;52.232;21.084;2022-08-16T11:45:56;27.70;99.90
36216;DHT22;22257;52.232;21.084;2022-08-16T11:48:25;27.50;99.90
36216;DHT22;22257;52.232;21.084;2022-08-16T11:50:53;27.40;99.90
36216;DHT22;22257;52.232;21.084;2022-08-16T11:53:21;27.50;99.90
36216;DHT22;22257;52.232;21.084;2022-08-16T11:55:50;27.20;99.90
36216;DHT22;22257;52.232;21.084;2022-08-16T11:58:18;26.90;99.90
36216;DHT22;22257;52.232;21.084;2022-08-16T12:00:45;26.70;99.90
36216;DHT22;22257;52.232;21.084;2022-08-16T12:03:12;27.00;99.90
36216;DHT22;22257;52.232;21.084;2022-08-16T12:05:41;27.00;99.90
36216;DHT22;22257;52.232;21.084;2022-08-16T12:08:09;27.00;99.90
36216;DHT22;22257;52.232;21.084;2022-08-16T12:10:37;27.10;99.90
36216;DHT22;22257;52.232;21.084;2022-08-16T12:13:06;27.30;99.90
36216;DHT22;22257;52.232;21.084;2022-08-16T12:15:33;27.20;99.90
36216;DHT22;22257;52.232;21.084;2022-08-16T12:18:00;27.30;99.90
36216;DHT22;22257;52.232;21.084;2022-08-16T12:20:30;27.20;99.90
36216;DHT22;22257;52.232;21.084;2022-08-16T12:22:56;27.20;99.90
36216;DHT22;22257;52.232;21.084;2022-08-16T12:25:25;27.20;99.90
36216;DHT22;22257;52.232;21.084;2022-08-16T12:27:53;26.90;99.90
36216;DHT22;22257;52.232;21.084;2022-08-16T12:30:23;26.70;99.90
36216;DHT22;22257;52.232;21.084;2022-08-16T12:32:50;26.60;99.90
36216;DHT22;22257;52.232;21.084;2022-08-16T12:35:19;26.40;99.90
36216;DHT22;22257;52.232;21.084;2022-08-16T12:37:47;26.30;99.90
36216;DHT22;22257;52.232;21.084;2022-08-16T12:40:17;26.30;99.90
36216;DHT22;22257;52.232;21.084;2022-08-16T12:42:47;26.60;99.90
36216;DHT22;22257;52.232;21.084;2022-08-16T12:45:19;26.70;99.90
36216;DHT22;22257;52.232;21.084;2022-08-16T12:47:46;26.80;99.90
36216;DHT22;22257;52.232;21.084;2022-08-16T12:50:32;26.70;99.90
36216;DHT22;22257;52.232;21.084;2022-08-16T12:52:58;26.90;99.90
36216;DHT22;22257;52.232;21.084;2022-08-16T12:55:25;26.90;99.90
36216;DHT22;22257;52.232;21.084;2022-08-16T12:57:53;27.00;99.90
36216;DHT22;22257;52.232;21.084;2022-08-16T13:00:20;27.50;99.90
36216;DHT22;22257;52.232;21.084;2022-08-16T13:02:46;27.80;99.90
36216;DHT22;22257;52.232;21.084;2022-08-16T13:05:14;27.70;99.90
36216;DHT22;22257;52.232;21.084;2022-08-16T13:07:42;28.10;99.90
36216;DHT22;22257;52.232;21.084;2022-08-16T13:10:11;28.70;99.90
36216;DHT22;22257;52.232;21.084;2022-08-16T13:12:44;29.10;99.90
36216;DHT22;22257;52.232;21.084;2022-08-16T13:15:14;28.60;99.90
36216;DHT22;22257;52.232;21.084;2022-08-16T13:17:41;28.70;99.90
36216;DHT22;22257;52.232;21.084;2022-08-16T13:20:14;28.30;99.90
36216;DHT22;22257;52.232;21.084;2022-08-16T13:22:49;28.50;99.90
36216;DHT22;22257;52.232;21.084;2022-08-16T13:25:21;29.00;99.90
36216;DHT22;22257;52.232;21.084;2022-08-16T13:27:46;29.60;99.90
36216;DHT22;22257;52.232;21.084;2022-08-16T13:30:13;29.50;99.90
36216;DHT22;22257;52.232;21.084;2022-08-16T13:32:39;29.50;99.90
36216;DHT22;22257;52.232;21.084;2022-08-16T13:35:06;29.20;99.90
36216;DHT22;22257;52.232;21.084;2022-08-16T13:37:32;29.00;99.90
36216;DHT22;22257;52.232;21.084;2022-08-16T13:40:00;29.20;99.90
36216;DHT22;22257;52.232;21.084;2022-08-16T13:42:26;29.30;99.90
36216;DHT22;22257;52.232;21.084;2022-08-16T13:44:52;29.40;99.90
36216;DHT22;22257;52.232;21.084;2022-08-16T13:47:18;29.80;99.90
36216;DHT22;22257;52.232;21.084;2022-08-16T13:49:44;29.70;99.90
36216;DHT22;22257;52.232;21.084;2022-08-16T13:52:13;30.00;99.90
36216;DHT22;22257;52.232;21.084;2022-08-16T13:54:40;29.70;99.90
36216;DHT22;22257;52.232;21.084;2022-08-16T13:57:06;30.40;99.90
36216;DHT22;22257;52.232;21.084;2022-08-16T13:59:32;30.40;99.90
36216;DHT22;22257;52.232;21.084;2022-08-16T14:01:58;31.10;99.90
36216;DHT22;22257;52.232;21.084;2022-08-16T14:04:31;30.10;99.90
36216;DHT22;22257;52.232;21.084;2022-08-16T14:06:57;30.10;99.90
36216;DHT22;22257;52.232;21.084;2022-08-16T14:09:25;29.90;99.90
36216;DHT22;22257;52.232;21.084;2022-08-16T14:11:52;30.00;99.90
36216;DHT22;22257;52.232;21.084;2022-08-16T14:14:20;30.20;99.90
36216;DHT22;22257;52.232;21.084;2022-08-16T14:16:46;30.00;99.90
36216;DHT22;22257;52.232;21.084;2022-08-16T14:19:12;30.70;99.90
36216;DHT22;22257;52.232;21.084;2022-08-16T14:21:40;31.60;99.90
36216;DHT22;22257;52.232;21.084;2022-08-16T14:24:07;32.80;99.90
36216;DHT22;22257;52.232;21.084;2022-08-16T14:26:33;32.80;99.90
36216;DHT22;22257;52.232;21.084;2022-08-16T14:28:59;33.30;99.90
36216;DHT22;22257;52.232;21.084;2022-08-16T14:31:27;32.20;99.90
36216;DHT22;22257;52.232;21.084;2022-08-16T14:33:53;32.50;99.90
36216;DHT22;22257;52.232;21.084;2022-08-16T14:36:19;32.00;99.90
36216;DHT22;22257;52.232;21.084;2022-08-16T14:38:45;32.10;99.90
36216;DHT22;22257;52.232;21.084;2022-08-16T14:41:11;31.90;99.90
36216;DHT22;22257;52.232;21.084;2022-08-16T14:43:37;32.10;99.90
36216;DHT22;22257;52.232;21.084;2022-08-16T14:46:03;32.50;99.90
36216;DHT22;22257;52.232;21.084;2022-08-16T14:48:30;33.30;99.90
36216;DHT22;22257;52.232;21.084;2022-08-16T14:50:56;34.50;99.90
36216;DHT22;22257;52.232;21.084;2022-08-16T14:53:24;34.40;99.40
36216;DHT22;22257;52.232;21.084;2022-08-16T14:55:51;35.20;97.90
36216;DHT22;22257;52.232;21.084;2022-08-16T14:58:18;33.80;97.10
36216;DHT22;22257;52.232;21.084;2022-08-16T15:00:45;32.80;99.80
36216;DHT22;22257;52.232;21.084;2022-08-16T15:03:11;33.80;99.90
36216;DHT22;22257;52.232;21.084;2022-08-16T15:05:39;33.60;97.80
36216;DHT22;22257;52.232;21.084;2022-08-16T15:08:07;33.80;97.40
36216;DHT22;22257;52.232;21.084;2022-08-16T15:10:33;34.00;95.20
36216;DHT22;22257;52.232;21.084;2022-08-16T15:12:59;33.00;96.60
36216;DHT22;22257;52.232;21.084;2022-08-16T15:15:27;34.10;96.60
36216;DHT22;22257;52.232;21.084;2022-08-16T15:17:54;33.30;96.20